Time;durP1;ratioP1;P1;durP2;ratioP2;P2;SDS_P1;SDS_P2;PMS_P1;PMS_P2;Temp;Humidity;BMP_temperature;BMP_pressure;BME280_temperature;BME280_humidity;BME280_pressure;Samples;Min_cycle;Max_cycle;Signal;HPM_P1;HPM_P2
2022/06/19 00:00:42;;;;;;;3.33;1.70;;;;;;;20.33;70.13;100424.34;4963894;28;20143;-85
2022/06/19 00:03:21;;;;;;;2.55;1.45;;;;;;;20.31;70.21;100420.03;4934712;28;20077;-85
2022/06/19 00:05:47;;;;;;;5.40;1.92;;;;;;;20.29;70.43;100419.28;4948722;28;20050;-85
2022/06/19 00:08:14;;;;;;;2.03;1.55;;;;;;;20.26;70.22;100408.78;4965143;28;20044;-84
2022/06/19 00:10:49;;;;;;;3.85;1.67;;;;;;;20.23;70.33;100409.81;4949195;28;20043;-83
2022/06/19 00:13:17;;;;;;;2.45;1.33;;;;;;;20.22;70.70;100401.94;4947577;28;20134;-84
2022/06/19 00:15:44;;;;;;;4.10;1.40;;;;;;;20.20;70.80;100393.19;4947984;28;20046;-84
2022/06/19 00:18:11;;;;;;;4.50;1.77;;;;;;;20.13;71.09;100379.38;4966083;28;20683;-84
2022/06/19 00:20:42;;;;;;;6.53;2.40;;;;;;;20.07;71.19;100369.91;4965490;28;20122;-84
2022/06/19 00:23:08;;;;;;;3.55;2.78;;;;;;;20.03;71.94;100359.56;4965234;28;20997;-85
2022/06/19 00:25:37;;;;;;;3.38;1.83;;;;;;;19.96;72.00;100359.03;4962410;28;20055;-85
2022/06/19 00:28:06;;;;;;;3.40;3.00;;;;;;;19.89;72.10;100347.00;4965154;28;20552;-85
2022/06/19 00:30:34;;;;;;;3.10;1.60;;;;;;;19.85;72.63;100345.44;4966938;28;20094;-83
2022/06/19 00:33:03;;;;;;;2.53;1.77;;;;;;;19.80;72.73;100335.00;4951010;28;20051;-85
2022/06/19 00:35:30;;;;;;;2.50;1.70;;;;;;;19.73;73.18;100334.47;4962907;28;20604;-83
2022/06/19 00:37:58;;;;;;;2.25;1.10;;;;;;;19.70;73.53;100331.13;4964400;28;20501;-84
2022/06/19 00:40:39;;;;;;;1.85;1.60;;;;;;;19.63;74.12;100322.63;4952066;28;20136;-84
2022/06/19 00:43:08;;;;;;;1.52;1.35;;;;;;;19.59;74.02;100326.38;4963398;28;20062;-85
2022/06/19 00:45:40;;;;;;;1.70;1.50;;;;;;;19.55;74.00;100309.75;4962951;28;20058;-83
2022/06/19 00:48:19;;;;;;;1.73;1.63;;;;;;;19.52;74.68;100304.59;4968283;28;20077;-85
2022/06/19 00:50:50;;;;;;;1.58;1.48;;;;;;;19.51;75.08;100314.34;4964810;28;20326;-84
2022/06/19 00:53:24;;;;;;;12.00;8.93;;;;;;;19.50;74.88;100309.13;4964196;28;20050;-85
2022/06/19 00:55:53;;;;;;;2.30;1.65;;;;;;;19.47;75.28;100318.09;4946037;28;20427;-83
2022/06/19 00:58:29;;;;;;;2.25;1.77;;;;;;;19.47;75.33;100311.94;4951713;28;20051;-84
2022/06/19 01:01:01;;;;;;;4.03;2.60;;;;;;;19.45;75.37;100311.16;4967995;28;20713;-81
2022/06/19 01:03:53;;;;;;;4.60;3.72;;;;;;;19.42;75.59;100308.66;4951030;28;20737;-84
2022/06/19 01:06:22;;;;;;;5.40;2.72;;;;;;;19.37;75.57;100300.09;4949240;28;20045;-83
2022/06/19 01:08:49;;;;;;;4.28;3.00;;;;;;;19.34;76.28;100301.94;4950713;28;20128;-84
2022/06/19 01:11:20;;;;;;;2.45;2.25;;;;;;;19.31;76.09;100296.81;4949085;28;20057;-83
2022/06/19 01:13:47;;;;;;;2.60;1.50;;;;;;;19.29;76.21;100297.81;4955347;28;20055;-84
2022/06/19 01:16:15;;;;;;;3.58;2.05;;;;;;;19.27;76.43;100295.25;4948423;28;20053;-83
2022/06/19 01:18:43;;;;;;;3.47;2.40;;;;;;;19.23;76.72;100288.38;4951757;28;20051;-84
2022/06/19 01:21:48;;;;;;;3.50;2.67;;;;;;;19.20;77.08;100287.69;4964101;28;20042;-83
2022/06/19 01:24:33;;;;;;;6.75;2.28;;;;;;;19.16;77.10;100285.19;4959795;28;20055;-83
2022/06/19 01:27:02;;;;;;;5.97;2.03;;;;;;;19.16;77.28;100284.31;4947419;28;20078;-83
2022/06/19 01:29:31;;;;;;;3.22;1.40;;;;;;;19.14;77.68;100273.78;4966099;28;21113;-83
2022/06/19 01:32:03;;;;;;;1.92;1.48;;;;;;;19.14;77.69;100272.94;4955054;28;20488;-84
2022/06/19 01:34:36;;;;;;;1.58;1.52;;;;;;;19.07;77.41;100264.41;4960481;28;20042;-82
2022/06/19 01:37:16;;;;;;;2.00;1.50;;;;;;;19.03;78.08;100254.03;4944668;28;20098;-86
2022/06/19 01:40:13;;;;;;;2.03;1.77;;;;;;;18.99;78.46;100250.69;4950310;28;20038;-85
2022/06/19 01:42:40;;;;;;;2.03;1.88;;;;;;;18.94;78.33;100252.72;4942740;28;20178;-85
2022/06/19 01:45:07;;;;;;;1.52;1.42;;;;;;;18.84;78.59;100242.53;4964704;28;20034;-84
2022/06/19 01:47:36;;;;;;;1.95;1.67;;;;;;;18.77;78.94;100249.09;4951562;28;20902;-83
2022/06/19 01:50:10;;;;;;;2.38;1.58;;;;;;;18.71;78.93;100245.84;4961136;28;20057;-85
2022/06/19 01:52:37;;;;;;;1.85;1.50;;;;;;;18.64;79.25;100232.94;4934717;28;20051;-85
2022/06/19 01:55:14;;;;;;;4.88;2.17;;;;;;;18.59;79.69;100221.69;4930135;28;20078;-83
2022/06/19 01:57:56;;;;;;;3.88;1.65;;;;;;;18.55;79.96;100211.31;4951575;28;20568;-83
2022/06/19 02:00:29;;;;;;;1.50;1.40;;;;;;;18.52;79.83;100205.25;4964969;28;20465;-84
2022/06/19 02:03:14;;;;;;;1.92;1.13;;;;;;;18.51;79.94;100213.25;4961014;28;20057;-84
2022/06/19 02:05:42;;;;;;;2.05;1.73;;;;;;;18.47;80.31;100212.56;4961568;28;20502;-86
2022/06/19 02:08:14;;;;;;;4.05;2.50;;;;;;;18.39;80.50;100201.44;4962849;28;20149;-86
2022/06/19 02:10:41;;;;;;;1.35;1.27;;;;;;;18.38;80.50;100201.53;4929730;28;20051;-86
2022/06/19 02:13:10;;;;;;;1.38;1.27;;;;;;;18.35;80.37;100202.53;4961751;28;20077;-86
2022/06/19 02:15:37;;;;;;;1.90;1.50;;;;;;;18.30;80.65;100191.31;4946822;28;20122;-83
2022/06/19 02:18:09;;;;;;;1.30;1.20;;;;;;;18.25;80.89;100188.91;4965150;28;20054;-83
2022/06/19 02:20:40;;;;;;;1.77;1.10;;;;;;;18.23;80.73;100182.81;4963670;28;20043;-83
2022/06/19 02:23:07;;;;;;;1.45;1.02;;;;;;;18.18;81.00;100176.88;4949614;28;20070;-84
2022/06/19 02:25:35;;;;;;;2.20;1.10;;;;;;;18.15;81.35;100185.81;4962138;28;20047;-82
2022/06/19 02:28:05;;;;;;;2.63;1.33;;;;;;;18.12;81.17;100190.41;4947534;28;20058;-84
2022/06/19 02:30:31;;;;;;;1.63;1.13;;;;;;;18.08;81.30;100191.47;4952357;28;20046;-82
2022/06/19 02:32:59;;;;;;;2.03;1.25;;;;;;;18.04;81.82;100192.56;4960831;28;20159;-85
2022/06/19 02:35:26;;;;;;;1.45;1.35;;;;;;;17.99;81.76;100185.69;4942193;28;20509;-83
2022/06/19 02:37:56;;;;;;;1.55;1.35;;;;;;;17.97;81.77;100184.06;4961383;28;20482;-84
2022/06/19 02:40:40;;;;;;;4.30;1.70;;;;;;;17.91;82.26;100174.56;4937866;28;20034;-83
2022/06/19 02:43:25;;;;;;;3.13;1.65;;;;;;;17.86;82.24;100164.19;4965162;28;20725;-81
2022/06/19 02:45:55;;;;;;;1.95;1.38;;;;;;;17.78;82.48;100171.66;4946330;28;20047;-84
2022/06/19 02:48:27;;;;;;;1.67;1.55;;;;;;;17.75;82.48;100170.94;4961960;28;20777;-83
2022/06/19 02:50:57;;;;;;;0.88;0.88;;;;;;;17.73;82.66;100172.78;4961781;28;20072;-84
2022/06/19 02:53:25;;;;;;;1.60;1.13;;;;;;;17.69;82.62;100157.06;4942304;28;20057;-85
2022/06/19 02:55:52;;;;;;;0.90;0.90;;;;;;;17.69;82.25;100162.34;4945214;28;20436;-83
2022/06/19 02:58:19;;;;;;;2.42;1.25;;;;;;;17.65;82.35;100157.25;4949689;28;20499;-83
2022/06/19 03:00:48;;;;;;;2.30;1.45;;;;;;;17.62;82.48;100157.41;4963329;28;20835;-85
2022/06/19 03:03:35;;;;;;;1.48;0.82;;;;;;;17.56;82.77;100147.97;4925106;28;20134;-86
2022/06/19 03:06:05;;;;;;;3.85;1.10;;;;;;;17.56;82.73;100144.44;4955330;28;20987;-84
2022/06/19 03:08:32;;;;;;;1.15;1.10;;;;;;;17.51;82.54;100148.16;4962441;28;20058;-85
2022/06/19 03:10:59;;;;;;;2.75;1.10;;;;;;;17.51;82.35;100142.88;4947465;28;20059;-83
2022/06/19 03:13:26;;;;;;;0.93;0.93;;;;;;;17.52;82.58;100146.38;4959221;28;20070;-84
2022/06/19 03:16:07;;;;;;;2.67;1.25;;;;;;;17.51;82.38;100131.44;4964586;28;20407;-83
2022/06/19 03:18:38;;;;;;;1.30;1.20;;;;;;;17.46;82.38;100126.34;4947267;28;20047;-83
2022/06/19 03:21:06;;;;;;;0.90;0.88;;;;;;;17.41;82.38;100120.41;4946219;28;20078;-83
2022/06/19 03:23:33;;;;;;;0.90;0.90;;;;;;;17.36;83.07;100117.13;4958263;28;20054;-84
2022/06/19 03:26:00;;;;;;;2.55;0.95;;;;;;;17.31;83.13;100104.13;4942354;28;20042;-83
2022/06/19 03:28:27;;;;;;;2.63;1.90;;;;;;;17.28;83.22;100087.53;4944528;28;20043;-85
2022/06/19 03:30:54;;;;;;;1.75;1.65;;;;;;;17.30;83.21;100085.66;4947575;28;20106;-84
2022/06/19 03:33:21;;;;;;;1.63;1.13;;;;;;;17.30;82.60;100085.66;4941915;28;20050;-85
2022/06/19 03:35:48;;;;;;;0.98;0.75;;;;;;;17.28;82.63;100088.38;4940638;28;20125;-85
2022/06/19 03:38:14;;;;;;;3.17;1.13;;;;;;;17.31;82.40;100087.38;4961847;28;20042;-83
2022/06/19 03:40:41;;;;;;;4.10;1.75;;;;;;;17.29;82.73;100079.50;4948252;28;20039;-83
2022/06/19 03:43:09;;;;;;;3.38;2.17;;;;;;;17.30;82.61;100075.06;4947839;28;20051;-82
2022/06/19 03:45:36;;;;;;;1.70;1.30;;;;;;;17.28;82.64;100067.22;4964605;28;20599;-84
2022/06/19 03:48:03;;;;;;;1.02;0.98;;;;;;;17.34;82.50;100060.78;4965009;28;20055;-85
2022/06/19 03:50:30;;;;;;;1.80;1.00;;;;;;;17.34;82.61;100050.22;4967965;28;20109;-83
2022/06/19 03:52:57;;;;;;;1.88;1.10;;;;;;;17.35;82.10;100038.69;4951103;28;20066;-83
2022/06/19 03:55:23;;;;;;;1.02;0.93;;;;;;;17.38;82.56;100038.56;4942127;28;20071;-82
2022/06/19 03:57:50;;;;;;;2.08;0.73;;;;;;;17.40;82.07;100034.03;4949845;28;20043;-83
2022/06/19 04:00:19;;;;;;;0.95;0.93;;;;;;;17.43;82.21;100033.91;4970052;28;20039;-83
2022/06/19 04:02:46;;;;;;;1.45;0.73;;;;;;;17.45;82.17;100041.75;4969556;28;20086;-84
2022/06/19 04:05:14;;;;;;;1.83;1.00;;;;;;;17.46;82.15;100038.19;4949510;28;20053;-83
2022/06/19 04:07:49;;;;;;;0.95;0.75;;;;;;;17.48;82.30;100049.53;4966984;28;20047;-83
2022/06/19 04:10:19;;;;;;;1.63;1.13;;;;;;;17.48;81.96;100042.47;4962210;28;20041;-85
2022/06/19 04:12:46;;;;;;;1.10;1.00;;;;;;;17.49;81.89;100048.63;4968568;28;20713;-84
2022/06/19 04:15:13;;;;;;;0.88;0.88;;;;;;;17.53;81.93;100047.53;4964583;28;20494;-85
2022/06/19 04:17:41;;;;;;;2.85;0.70;;;;;;;17.55;82.04;100043.03;4968013;28;20058;-83
2022/06/19 04:20:09;;;;;;;1.05;0.85;;;;;;;17.58;81.61;100026.16;4952173;28;20157;-85
2022/06/19 04:22:39;;;;;;;1.98;0.90;;;;;;;17.62;81.66;100031.22;4963165;28;20473;-83
2022/06/19 04:25:13;;;;;;;1.92;1.00;;;;;;;17.67;81.23;100034.50;4964828;28;20465;-82
2022/06/19 04:27:42;;;;;;;1.08;0.93;;;;;;;17.78;81.07;100054.28;4967700;28;20047;-84
2022/06/19 04:30:09;;;;;;;1.00;1.00;;;;;;;17.83;80.23;100073.47;4951853;28;20043;-84
2022/06/19 04:32:38;;;;;;;0.95;0.93;;;;;;;17.89;80.36;100085.56;4969579;28;20050;-84
2022/06/19 04:35:05;;;;;;;0.63;0.63;;;;;;;17.94;80.02;100104.75;4948047;28;20081;-84
2022/06/19 04:37:32;;;;;;;1.80;0.82;;;;;;;17.98;79.98;100109.81;4967071;28;20684;-84
2022/06/19 04:39:59;;;;;;;4.30;1.48;;;;;;;18.02;79.62;100090.19;4965078;28;20101;-85
2022/06/19 04:42:26;;;;;;;2.58;0.60;;;;;;;18.06;79.42;100060.94;4950065;28;20050;-84
2022/06/19 04:44:52;;;;;;;1.08;1.05;;;;;;;18.10;79.07;100041.31;4966472;28;20118;-84
2022/06/19 04:47:21;;;;;;;1.50;1.00;;;;;;;18.13;78.93;100052.59;4967879;28;20055;-86
2022/06/19 04:50:00;;;;;;;0.88;0.63;;;;;;;18.16;78.69;100071.00;4965371;28;20054;-84
2022/06/19 04:52:28;;;;;;;1.45;1.15;;;;;;;18.22;78.39;100091.00;4963834;28;21715;-84
2022/06/19 04:54:54;;;;;;;1.85;0.70;;;;;;;18.27;77.96;100088.13;4948335;28;20521;-84
2022/06/19 04:57:24;;;;;;;1.65;0.80;;;;;;;18.30;77.83;100059.72;4964046;28;20866;-85
2022/06/19 04:59:51;;;;;;;2.35;1.05;;;;;;;18.37;77.47;100062.03;4949810;28;20037;-83
2022/06/19 05:02:19;;;;;;;0.90;0.90;;;;;;;18.35;77.36;100086.81;4968482;28;20042;-84
2022/06/19 05:04:50;;;;;;;1.40;1.25;;;;;;;18.35;76.90;100102.72;4963985;28;20172;-83
2022/06/19 05:07:18;;;;;;;1.15;1.05;;;;;;;18.34;76.58;100105.44;4963913;28;20049;-85
2022/06/19 05:09:46;;;;;;;1.98;0.80;;;;;;;18.34;75.97;100093.06;4953640;28;20162;-84
2022/06/19 05:12:12;;;;;;;1.20;0.75;;;;;;;18.35;76.03;100088.59;4961573;28;20049;-84
2022/06/19 05:14:40;;;;;;;1.10;1.00;;;;;;;18.35;75.50;100084.19;4952133;28;20428;-83
2022/06/19 05:17:06;;;;;;;1.02;1.02;;;;;;;18.35;74.93;100105.38;4962171;28;20066;-84
2022/06/19 05:19:33;;;;;;;1.05;0.77;;;;;;;18.34;74.94;100092.19;4962611;28;20197;-84
2022/06/19 05:22:03;;;;;;;2.05;0.80;;;;;;;18.31;74.75;100076.44;4959291;28;20223;-84
2022/06/19 05:24:30;;;;;;;2.20;0.90;;;;;;;18.32;74.34;100094.06;4948932;28;20055;-84
2022/06/19 05:26:57;;;;;;;1.10;0.60;;;;;;;18.31;74.22;100082.59;4949935;28;20053;-85
2022/06/19 05:29:23;;;;;;;2.50;0.70;;;;;;;18.33;73.81;100071.94;4951947;28;20043;-83
2022/06/19 05:31:50;;;;;;;3.20;0.70;;;;;;;18.34;73.77;100100.13;4966660;28;20069;-85
2022/06/19 05:34:17;;;;;;;0.88;0.50;;;;;;;18.37;73.53;100072.63;4967032;28;20050;-84
2022/06/19 05:36:44;;;;;;;1.55;0.73;;;;;;;18.39;73.01;100062.81;4964879;28;20786;-85
2022/06/19 05:39:11;;;;;;;1.13;0.70;;;;;;;18.42;73.01;100074.13;4964661;28;20047;-85
2022/06/19 05:41:41;;;;;;;0.93;0.93;;;;;;;18.49;72.54;100072.00;4952388;28;20979;-86
2022/06/19 05:44:09;;;;;;;0.88;0.57;;;;;;;18.50;71.75;100085.19;4952474;28;20161;-85
2022/06/19 05:46:35;;;;;;;2.55;0.63;;;;;;;18.47;71.28;100101.25;4966215;28;20055;-84
2022/06/19 05:49:02;;;;;;;3.25;1.08;;;;;;;18.47;71.06;100103.91;4951293;28;20121;-85
2022/06/19 05:51:29;;;;;;;2.80;0.95;;;;;;;18.46;70.52;100096.00;4950383;28;20142;-84
2022/06/19 05:53:58;;;;;;;3.20;0.68;;;;;;;18.44;70.19;100100.53;4957879;28;20054;-85
2022/06/19 05:56:27;;;;;;;5.65;1.33;;;;;;;18.44;69.89;100113.78;4957011;28;20053;-85
2022/06/19 05:58:55;;;;;;;4.78;1.33;;;;;;;18.45;68.46;100123.47;4953007;28;20054;-83
2022/06/19 06:01:23;;;;;;;1.58;0.98;;;;;;;18.40;68.14;100121.03;4949856;28;20047;-84
2022/06/19 06:03:50;;;;;;;3.20;1.10;;;;;;;18.34;67.34;100129.28;4963549;28;20074;-85
2022/06/19 06:06:25;;;;;;;5.28;1.20;;;;;;;18.32;65.74;100121.41;4945754;28;20146;-85
2022/06/19 06:08:54;;;;;;;9.40;1.45;;;;;;;18.27;65.47;100130.53;4957202;28;20057;-83
2022/06/19 06:11:21;;;;;;;5.70;1.10;;;;;;;18.26;64.67;100128.81;4945136;28;20927;-85
2022/06/19 06:13:49;;;;;;;6.38;1.17;;;;;;;18.25;64.27;100138.56;4961416;28;20588;-84
2022/06/19 06:16:20;;;;;;;3.78;1.02;;;;;;;18.32;64.30;100128.50;4968758;28;20035;-85
2022/06/19 06:18:46;;;;;;;4.75;1.05;;;;;;;18.34;62.90;100137.22;4952212;28;20043;-86
2022/06/19 06:21:20;;;;;;;7.60;1.10;;;;;;;18.32;62.22;100152.34;4950458;28;20047;-85
2022/06/19 06:23:48;;;;;;;7.95;1.85;;;;;;;18.35;62.18;100144.25;4964335;28;20070;-85
2022/06/19 06:26:29;;;;;;;5.25;1.17;;;;;;;18.42;61.03;100139.50;4948758;28;20055;-85
2022/06/19 06:28:59;;;;;;;6.88;1.42;;;;;;;18.41;59.87;100151.91;4964151;28;20038;-81
2022/06/19 06:31:26;;;;;;;3.58;1.20;;;;;;;18.34;59.50;100159.28;4949393;28;20573;-83
2022/06/19 06:33:53;;;;;;;2.67;1.10;;;;;;;18.32;59.37;100133.81;4948551;28;20038;-84
2022/06/19 06:36:20;;;;;;;4.20;1.38;;;;;;;18.37;58.63;100122.97;4961871;28;20038;-86
2022/06/19 06:38:49;;;;;;;3.28;1.63;;;;;;;18.40;58.06;100123.69;4963287;28;20051;-84
2022/06/19 06:41:16;;;;;;;6.90;1.52;;;;;;;18.45;57.56;100134.06;4963634;28;20065;-86
2022/06/19 06:43:44;;;;;;;4.07;1.40;;;;;;;18.46;56.92;100138.41;4949460;28;21757;-84
2022/06/19 06:46:18;;;;;;;4.95;1.85;;;;;;;18.48;56.73;100118.00;4948846;28;20050;-81
2022/06/19 06:48:46;;;;;;;4.97;1.45;;;;;;;18.49;56.40;100104.66;4963881;28;20117;-81
2022/06/19 06:51:16;;;;;;;7.05;2.15;;;;;;;18.50;56.35;100119.63;4958452;28;20047;-84
2022/06/19 06:53:43;;;;;;;5.45;1.45;;;;;;;18.58;56.08;100123.69;4962259;28;20055;-85
2022/06/19 06:56:13;;;;;;;5.68;1.77;;;;;;;18.65;56.09;100102.06;4962716;28;20561;-83
2022/06/19 06:58:40;;;;;;;7.90;1.30;;;;;;;18.77;55.47;100100.59;4942949;28;20046;-85
2022/06/19 07:01:18;;;;;;;4.47;1.00;;;;;;;18.83;55.11;100094.13;4965159;28;21356;-82
2022/06/19 07:03:47;;;;;;;4.97;1.17;;;;;;;18.86;55.41;100099.25;4945328;28;20565;-83
2022/06/19 07:06:14;;;;;;;7.70;1.55;;;;;;;18.92;54.35;100114.03;4944738;28;20039;-84
2022/06/19 07:08:47;;;;;;;6.20;1.42;;;;;;;18.91;54.46;100102.53;4964889;28;20047;-86
2022/06/19 07:11:19;;;;;;;5.20;1.73;;;;;;;18.97;54.64;100098.72;4935614;28;20844;-85
2022/06/19 07:13:49;;;;;;;6.93;1.52;;;;;;;19.12;54.83;100105.00;4943157;28;20363;-83
2022/06/19 07:16:15;;;;;;;5.63;1.77;;;;;;;19.21;54.47;100103.66;4960411;28;20042;-83
2022/06/19 07:18:42;;;;;;;3.95;1.20;;;;;;;19.31;54.31;100120.81;4962302;28;20352;-84
2022/06/19 07:21:11;;;;;;;4.63;1.60;;;;;;;19.43;54.05;100113.97;4961667;28;20732;-83
2022/06/19 07:23:40;;;;;;;5.13;1.88;;;;;;;19.55;53.79;100101.81;4962552;28;20074;-85
2022/06/19 07:26:13;;;;;;;3.28;1.40;;;;;;;19.69;53.30;100114.34;4963969;28;20038;-84
2022/06/19 07:28:42;;;;;;;4.53;1.15;;;;;;;19.96;53.11;100115.47;4965956;28;20046;-84
2022/06/19 07:31:10;;;;;;;5.45;1.88;;;;;;;20.29;51.97;100125.09;4967831;28;20042;-84
2022/06/19 07:33:44;;;;;;;7.22;2.03;;;;;;;20.61;51.03;100119.69;4933437;28;20059;-82
2022/06/19 07:36:22;;;;;;;6.25;2.03;;;;;;;20.98;50.22;100106.00;4947916;28;20055;-84
2022/06/19 07:38:49;;;;;;;9.07;2.28;;;;;;;21.40;49.65;100106.94;4961594;28;21169;-85
2022/06/19 07:41:16;;;;;;;11.63;2.22;;;;;;;21.95;48.73;100105.25;4961929;28;20059;-84
2022/06/19 07:43:44;;;;;;;4.82;1.77;;;;;;;22.53;47.47;100105.00;4946712;28;20054;-84
2022/06/19 07:46:14;;;;;;;5.40;2.00;;;;;;;23.07;46.02;100108.44;4967625;28;20055;-85
2022/06/19 07:51:39;;;;;;;7.53;1.70;;;;;;;23.78;44.16;100074.88;4963191;28;20047;-85
2022/06/19 07:54:07;;;;;;;8.27;1.80;;;;;;;23.82;43.91;100047.91;4964449;28;20113;-84
2022/06/19 07:56:36;;;;;;;4.28;2.03;;;;;;;23.98;43.90;100059.22;4942773;28;20074;-83
2022/06/19 07:59:03;;;;;;;5.20;1.83;;;;;;;24.42;43.43;100079.06;4969193;28;20148;-84
2022/06/19 08:01:36;;;;;;;4.65;1.80;;;;;;;25.08;41.97;100059.72;4971705;28;20137;-84
2022/06/19 08:04:03;;;;;;;6.20;1.90;;;;;;;25.34;40.36;100070.16;4953769;28;20591;-85
2022/06/19 08:06:30;;;;;;;6.13;2.10;;;;;;;25.51;41.06;100065.31;4968238;28;20054;-82
2022/06/19 08:08:59;;;;;;;4.38;2.05;;;;;;;25.53;40.34;100069.56;4951769;28;20047;-86
2022/06/19 08:11:26;;;;;;;6.25;2.47;;;;;;;25.76;39.59;100065.00;4959292;28;20212;-85
2022/06/19 08:13:52;;;;;;;9.15;2.55;;;;;;;25.75;39.59;100063.28;4955573;28;20118;-84
2022/06/19 08:16:19;;;;;;;5.95;2.22;;;;;;;25.82;39.62;100058.28;4957873;28;20054;-85
2022/06/19 08:21:26;;;;;;;8.05;2.33;;;;;;;26.46;38.66;100059.22;4951649;28;20211;-81
2022/06/19 08:23:53;;;;;;;5.57;2.33;;;;;;;27.19;38.06;100072.63;4950417;28;20050;-87
2022/06/19 08:26:25;;;;;;;4.93;1.90;;;;;;;27.72;36.73;100095.72;4960437;28;20045;-85
2022/06/19 08:28:59;;;;;;;;;;;;;;;28.15;35.50;100117.06;4943477;28;20046;-84
2022/06/19 08:31:26;;;;;;;3.97;1.75;;;;;;;28.34;35.34;100135.91;4966887;28;19922;-84
2022/06/19 08:33:57;;;;;;;6.55;2.20;;;;;;;28.64;34.93;100146.66;4955629;28;20050;-86
2022/06/19 08:36:48;;;;;;;3.58;1.63;;;;;;;28.86;34.89;100149.06;4959513;28;20047;-83
2022/06/19 08:39:21;;;;;;;4.10;1.85;;;;;;;29.42;33.97;100133.00;4965665;28;20389;-83
2022/06/19 08:42:42;;;;;;;;;;;;;;;;;;;;;
2022/06/19 08:45:37;;;;;;;7.40;2.17;;;;;;;30.25;32.24;100144.75;4973853;28;20070;-85
2022/06/19 08:48:21;;;;;;;6.28;2.25;;;;;;;30.32;32.13;100141.25;4961461;28;20082;-87
2022/06/19 08:51:22;;;;;;;5.97;2.55;;;;;;;29.84;32.58;100146.00;4953545;28;20564;-86
2022/06/19 08:54:02;;;;;;;5.15;1.75;;;;;;;28.82;34.12;100160.25;4954047;28;20444;-87
2022/06/19 08:56:49;;;;;;;6.65;1.98;;;;;;;28.30;35.51;100164.06;4975456;28;20557;-88
2022/06/19 09:00:02;;;;;;;7.03;2.33;;;;;;;27.98;36.60;100154.38;4976893;28;20047;-85
2022/06/19 09:02:54;;;;;;;6.05;2.00;;;;;;;28.49;35.59;100160.53;4980108;28;20413;-85
2022/06/19 09:05:40;;;;;;;9.35;2.95;;;;;;;29.13;34.92;100177.06;4965431;28;20113;-87
2022/06/19 09:08:37;;;;;;;7.47;2.30;;;;;;;30.16;33.14;100177.03;4972282;28;20113;-86
2022/06/19 09:15:11;;;;;;;9.10;2.67;;;;;;;31.29;30.82;100184.59;4983350;28;20117;-85
2022/06/19 09:18:06;;;;;;;7.07;3.00;;;;;;;31.30;31.24;100197.09;4970660;28;20099;-88
2022/06/19 09:24:08;;;;;;;5.72;2.63;;;;;;;31.58;31.19;100218.53;4970723;28;20058;-88
2022/06/19 09:30:29;;;;;;;6.25;2.90;;;;;;;32.44;29.81;100226.66;4963307;28;20051;-85
2022/06/19 09:33:50;;;;;;;3.38;2.35;;;;;;;32.73;28.93;100244.34;4950928;28;20173;-86
2022/06/19 09:43:27;;;;;;;4.32;2.25;;;;;;;34.48;26.27;100276.31;4966201;28;20101;-84
2022/06/19 09:46:17;;;;;;;6.78;2.28;;;;;;;34.25;26.47;100277.06;4953926;28;20051;-83
2022/06/19 09:49:10;;;;;;;7.47;2.65;;;;;;;34.19;25.67;100289.50;4939160;28;20058;-83
2022/06/19 09:52:42;;;;;;;4.07;2.10;;;;;;;33.21;26.78;100275.16;4967127;23;20050;-85
2022/06/19 09:55:48;;;;;;;5.47;2.40;;;;;;;32.63;27.40;100266.13;4990846;28;20764;-86
2022/06/19 10:01:13;;;;;;;6.47;2.55;;;;;;;32.37;27.96;100305.00;4989831;28;20050;-84
2022/06/19 10:04:26;;;;;;;7.03;1.80;;;;;;;31.97;28.00;100296.56;4993932;28;20180;-83
2022/06/19 10:07:06;;;;;;;4.43;2.25;;;;;;;32.20;27.69;100278.91;4994681;28;20049;-85
2022/06/19 10:10:33;;;;;;;6.35;2.28;;;;;;;33.33;26.47;100270.25;4990825;28;20054;-84
2022/06/19 10:13:39;;;;;;;6.30;2.00;;;;;;;34.63;25.03;100285.38;4989198;28;20085;-85
2022/06/19 10:16:59;;;;;;;3.55;1.45;;;;;;;34.93;24.05;100280.91;4994895;28;20811;-89
2022/06/19 10:20:15;;;;;;;4.57;2.15;;;;;;;35.31;23.60;100273.78;4962097;28;21792;-83
2022/06/19 10:23:26;;;;;;;3.60;1.70;;;;;;;35.76;23.51;100286.44;4990477;28;20045;-87
2022/06/19 10:26:48;;;;;;;6.30;2.20;;;;;;;36.59;22.36;100288.09;4954072;28;20816;-84
2022/06/19 10:34:01;;;;;;;5.40;2.13;;;;;;;33.94;24.97;100286.06;4995881;28;20061;-83
2022/06/19 10:37:14;;;;;;;6.57;2.17;;;;;;;33.89;25.21;100286.56;4997017;28;20049;-84
2022/06/19 10:40:44;;;;;;;5.93;2.50;;;;;;;34.52;24.89;100310.25;4994132;28;20669;-87
2022/06/19 10:50:11;;;;;;;8.32;2.40;;;;;;;34.00;25.28;100315.22;5008863;28;20147;-86
2022/06/19 10:53:28;;;;;;;6.88;2.53;;;;;;;34.38;25.08;100304.56;4977254;28;20064;-87
2022/06/19 10:59:21;;;;;;;7.38;2.88;;;;;;;34.71;25.06;100303.50;4976424;28;20042;-83
2022/06/19 11:05:14;;;;;;;4.40;2.08;;;;;;;35.51;23.69;100296.72;4957070;28;20513;-85
2022/06/19 11:08:04;;;;;;;6.13;2.50;;;;;;;35.86;23.58;100304.38;4978005;28;20050;-85
2022/06/19 11:10:51;;;;;;;8.73;2.08;;;;;;;35.81;23.73;100290.47;4975356;28;20054;-85
2022/06/19 11:14:04;;;;;;;5.65;2.17;;;;;;;35.88;23.65;100284.09;4956987;28;20108;-86
2022/06/19 11:17:02;;;;;;;3.35;2.33;;;;;;;35.73;23.87;100275.88;4958514;28;20627;-84
2022/06/19 11:19:58;;;;;;;4.35;1.80;;;;;;;35.41;24.33;100266.22;4969790;28;20062;-84
2022/06/19 11:26:43;;;;;;;6.22;2.88;;;;;;;32.73;26.98;100266.84;4980734;28;20100;-85
2022/06/19 11:29:28;;;;;;;6.82;2.35;;;;;;;31.64;28.31;100247.69;4980533;28;20038;-86
2022/06/19 11:36:12;;;;;;;5.72;2.25;;;;;;;31.90;28.38;100232.41;4877746;29;20060;-87
2022/06/19 11:40:26;;;;;;;9.35;2.65;;;;;;;32.90;27.10;100224.31;4934541;28;20075;-82
2022/06/19 11:53:01;;;;;;;4.82;1.83;;;;;;;32.91;26.88;100192.66;4961352;28;20894;-87
2022/06/19 11:57:23;;;;;;;;;;;;;;;;;;;;;
2022/06/19 12:04:01;;;;;;;4.78;2.58;;;;;;;30.47;30.60;100198.31;4887483;29;20182;-86
2022/06/19 12:06:42;;;;;;;9.48;2.83;;;;;;;30.18;30.91;100195.78;4879950;29;20047;-84
2022/06/19 12:10:29;;;;;;;9.57;2.92;;;;;;;29.93;31.14;100206.31;4965267;28;20177;-84
2022/06/19 12:13:07;;;;;;;8.45;3.28;;;;;;;30.33;30.75;100233.91;4974934;28;20061;-83
2022/06/19 12:16:28;;;;;;;4.47;2.42;;;;;;;31.44;29.12;100229.97;4980407;28;20053;-86
2022/06/19 12:22:15;;;;;;;4.78;2.45;;;;;;;34.38;25.89;100231.19;4978270;28;20058;-84
2022/06/19 12:25:32;;;;;;;5.22;2.58;;;;;;;34.92;25.08;100215.84;4969259;28;20058;-85
2022/06/19 12:31:29;;;;;;;;;;;;;;;34.12;26.28;100188.88;4979843;28;20069;-86
2022/06/19 12:34:29;;;;;;;4.15;2.20;;;;;;;32.73;27.65;100209.94;4965231;28;20385;-84
2022/06/19 12:37:12;;;;;;;6.60;2.90;;;;;;;31.65;29.14;100235.88;4977979;28;20053;-85
2022/06/19 12:39:55;;;;;;;6.20;2.90;;;;;;;30.81;30.19;100230.00;4979224;28;20147;-87
2022/06/19 12:46:39;;;;;;;7.05;2.60;;;;;;;29.23;32.65;100170.78;4950354;28;20670;-84
2022/06/19 12:49:53;;;;;;;6.93;2.67;;;;;;;28.86;33.46;100156.28;4995073;28;20058;-83
2022/06/19 12:53:06;;;;;;;8.88;2.80;;;;;;;29.64;32.70;100161.41;4984473;28;20085;-86
2022/06/19 12:56:01;;;;;;;4.85;1.98;;;;;;;30.31;31.26;100185.47;4964502;28;20057;-85
2022/06/19 12:59:21;;;;;;;3.83;2.60;;;;;;;30.63;31.15;100194.06;4987089;28;20350;-85
2022/06/19 13:05:40;;;;;;;7.20;3.17;;;;;;;31.19;30.28;100202.78;4983911;28;20069;-84
2022/06/19 13:08:59;;;;;;;7.82;2.30;;;;;;;32.36;28.77;100195.00;4980841;28;20078;-84
2022/06/19 13:12:14;;;;;;;6.55;2.25;;;;;;;33.75;26.84;100197.69;5000322;28;20057;-82
2022/06/19 13:15:34;;;;;;;3.90;1.63;;;;;;;34.05;26.53;100179.75;5003419;28;20061;-85
2022/06/19 13:22:09;;;;;;;7.60;2.03;;;;;;;32.53;28.38;100195.00;4983609;28;20137;-83
2022/06/19 13:25:05;;;;;;;6.22;2.28;;;;;;;31.46;29.96;100196.34;4982290;28;20042;-84
2022/06/19 13:28:28;;;;;;;8.68;2.45;;;;;;;31.09;30.49;100208.28;4968165;28;20051;-84
2022/06/19 13:34:22;;;;;;;4.18;2.25;;;;;;;30.23;31.28;100244.75;4972334;28;20065;-83
2022/06/19 13:37:43;;;;;;;4.35;2.55;;;;;;;29.66;32.32;100250.28;4986391;28;20053;-84
2022/06/19 13:41:04;;;;;;;4.78;2.60;;;;;;;30.11;31.62;100251.38;4950621;28;20580;-84
2022/06/19 13:44:43;;;;;;;6.22;2.00;;;;;;;30.62;30.79;100263.44;4978997;28;20046;-83
2022/06/19 13:48:12;;;;;;;5.93;1.88;;;;;;;31.02;29.54;100277.47;4980657;28;20104;-83